Time;durP1;ratioP1;P1;durP2;ratioP2;P2;SDS_P1;SDS_P2;PMS_P1;PMS_P2;Temp;Humidity;BMP_temperature;BMP_pressure;BME280_temperature;BME280_humidity;BME280_pressure;Samples;Min_cycle;Max_cycle;Signal;HPM_P1;HPM_P2
2023/07/20 00:00:22;;;;;;;2.50;1.50;;;21.90;65.00;;;;;;10363418;28;20061;-57
2023/07/20 00:05:24;;;;;;;2.45;1.50;;;21.90;65.00;;;;;;10363746;28;20026;-57
2023/07/20 00:10:25;;;;;;;1.80;1.23;;;21.90;65.00;;;;;;10363440;28;20049;-58
2023/07/20 00:15:26;;;;;;;2.47;1.13;;;21.90;65.60;;;;;;10345782;28;20121;-59
2023/07/20 00:20:26;;;;;;;1.60;1.30;;;21.90;65.10;;;;;;10322718;28;20034;-58
2023/07/20 00:25:27;;;;;;;2.35;1.85;;;21.90;65.10;;;;;;10322455;28;20026;-58
2023/07/20 00:30:28;;;;;;;2.45;1.67;;;21.90;65.10;;;;;;10321740;28;20666;-59
2023/07/20 00:35:28;;;;;;;2.22;1.42;;;21.90;65.10;;;;;;10322197;28;20102;-58
2023/07/20 00:40:35;;;;;;;3.28;1.33;;;21.90;65.10;;;;;;10353248;28;20078;-59
2023/07/20 00:45:37;;;;;;;1.75;1.33;;;21.90;65.10;;;;;;10321737;28;20027;-58
2023/07/20 00:50:38;;;;;;;3.17;1.60;;;21.90;65.10;;;;;;10380475;28;20029;-59
2023/07/20 00:55:39;;;;;;;2.03;1.67;;;21.90;65.20;;;;;;10392839;28;20032;-59
2023/07/20 01:00:40;;;;;;;1.80;1.48;;;21.90;65.10;;;;;;10361793;28;20033;-57
2023/07/20 01:06:04;;;;;;;2.65;1.80;;;21.90;65.10;;;;;;10361487;28;20037;-59
2023/07/20 01:11:27;;;;;;;3.30;1.55;;;21.80;65.20;;;;;;10390910;28;20026;-58
2023/07/20 01:16:28;;;;;;;2.30;1.65;;;21.80;65.20;;;;;;10334547;28;20548;-57
2023/07/20 01:21:45;;;;;;;2.03;1.40;;;21.80;65.10;;;;;;10320661;28;20030;-59
2023/07/20 01:27:21;;;;;;;1.60;1.42;;;21.90;65.20;;;;;;10320445;28;20041;-59
2023/07/20 01:32:25;;;;;;;2.55;1.70;;;21.80;65.20;;;;;;10348606;28;20541;-58
2023/07/20 01:37:29;;;;;;;2.40;1.55;;;21.80;65.10;;;;;;10319921;28;20057;-59
2023/07/20 01:42:30;;;;;;;2.63;1.42;;;21.80;65.10;;;;;;10357698;28;20050;-59
2023/07/20 01:47:31;;;;;;;1.42;0.90;;;21.80;65.10;;;;;;10328910;28;20615;-59
2023/07/20 01:52:31;;;;;;;2.13;1.80;;;21.80;65.20;;;;;;10328348;28;20564;-57
2023/07/20 01:57:32;;;;;;;3.10;1.00;;;21.80;65.20;;;;;;10327827;28;20543;-58
2023/07/20 02:02:33;;;;;;;1.40;1.27;;;21.80;65.10;;;;;;10327645;28;20074;-59
2023/07/20 02:07:33;;;;;;;3.90;1.75;;;21.80;65.20;;;;;;10333624;28;20113;-58
2023/07/20 02:12:34;;;;;;;2.75;1.65;;;21.80;65.10;;;;;;10368042;28;20392;-57
2023/07/20 02:17:35;;;;;;;1.55;1.30;;;21.80;65.10;;;;;;10367494;28;20599;-59
2023/07/20 02:22:39;;;;;;;2.13;1.40;;;21.80;65.00;;;;;;10367401;28;20478;-58
2023/07/20 02:27:40;;;;;;;2.80;1.55;;;21.80;65.00;;;;;;10367197;28;20029;-57
2023/07/20 02:32:45;;;;;;;1.42;1.10;;;21.70;65.00;;;;;;10367142;28;20022;-58
2023/07/20 02:37:45;;;;;;;2.65;1.58;;;21.70;65.00;;;;;;10366995;28;20030;-58
2023/07/20 02:42:46;;;;;;;3.22;1.77;;;21.70;64.90;;;;;;10366367;28;20108;-59
2023/07/20 02:47:47;;;;;;;2.45;1.33;;;21.70;64.90;;;;;;10366577;28;20044;-59
2023/07/20 02:52:48;;;;;;;2.10;1.40;;;21.70;64.90;;;;;;10366274;28;20028;-59
2023/07/20 02:57:48;;;;;;;2.85;1.80;;;21.70;64.90;;;;;;10366228;28;20084;-59
2023/07/20 03:02:52;;;;;;;1.10;1.00;;;21.70;64.80;;;;;;10397811;28;20072;-59
2023/07/20 03:07:52;;;;;;;1.42;1.08;;;21.70;64.70;;;;;;10365332;28;20519;-59
2023/07/20 03:12:53;;;;;;;1.90;1.35;;;21.70;64.70;;;;;;10365489;28;20148;-59
2023/07/20 03:17:53;;;;;;;2.00;1.25;;;21.70;64.70;;;;;;10327409;28;20037;-59
2023/07/20 03:22:54;;;;;;;1.83;0.82;;;21.70;64.70;;;;;;10324865;28;20050;-59
2023/07/20 03:27:55;;;;;;;1.48;0.85;;;21.70;64.70;;;;;;10319990;28;20117;-59
2023/07/20 03:32:55;;;;;;;1.35;0.95;;;21.70;64.70;;;;;;10356514;28;20470;-59
2023/07/20 03:37:57;;;;;;;1.33;1.00;;;21.70;64.60;;;;;;10325323;28;20558;-58
2023/07/20 03:42:57;;;;;;;1.85;1.13;;;21.60;64.60;;;;;;10325225;28;20054;-58
2023/07/20 03:47:58;;;;;;;1.27;1.00;;;21.60;64.50;;;;;;10325127;28;20133;-58
2023/07/20 03:52:59;;;;;;;1.30;1.20;;;21.60;64.50;;;;;;10325462;28;20113;-58
2023/07/20 03:58:00;;;;;;;1.40;1.00;;;21.60;64.50;;;;;;10356365;28;20466;-58
2023/07/20 04:03:00;;;;;;;1.67;1.13;;;21.60;64.50;;;;;;10355465;28;20110;-58
2023/07/20 04:08:01;;;;;;;1.88;0.90;;;21.60;64.40;;;;;;10334951;28;20080;-59
2023/07/20 04:13:02;;;;;;;1.60;1.08;;;21.60;64.40;;;;;;10365084;28;20432;-59
2023/07/20 04:18:03;;;;;;;2.20;0.90;;;21.60;64.30;;;;;;10325304;28;20030;-59
2023/07/20 04:23:03;;;;;;;1.40;1.00;;;21.60;64.30;;;;;;10322130;28;20121;-56
2023/07/20 04:28:08;;;;;;;2.00;1.10;;;21.60;64.30;;;;;;10323590;28;20514;-59
2023/07/20 04:33:09;;;;;;;2.05;1.10;;;21.60;64.20;;;;;;10323194;28;20101;-58
2023/07/20 04:38:09;;;;;;;1.25;0.80;;;21.60;64.20;;;;;;10323343;28;20022;-58
2023/07/20 04:43:10;;;;;;;1.52;0.90;;;21.60;64.20;;;;;;10322877;28;20129;-58
2023/07/20 04:48:16;;;;;;;1.33;0.90;;;21.60;64.20;;;;;;10322835;28;20045;-60
2023/07/20 04:53:16;;;;;;;0.70;0.68;;;21.60;64.20;;;;;;10322828;28;20027;-59
2023/07/20 04:58:21;;;;;;;1.30;0.77;;;21.60;64.20;;;;;;10322318;28;20113;-59
2023/07/20 05:03:22;;;;;;;2.03;0.77;;;21.60;64.20;;;;;;10322824;28;20085;-59
2023/07/20 05:08:23;;;;;;;1.05;0.85;;;21.60;64.20;;;;;;10335571;28;20107;-58
2023/07/20 05:13:26;;;;;;;1.23;0.70;;;21.60;64.30;;;;;;10360873;28;20018;-59
2023/07/20 05:18:27;;;;;;;0.90;0.90;;;21.60;64.20;;;;;;10321933;28;20482;-59
2023/07/20 05:23:28;;;;;;;1.52;1.00;;;21.60;64.20;;;;;;10321922;28;20113;-59
2023/07/20 05:28:28;;;;;;;1.67;0.90;;;21.60;64.20;;;;;;10321725;28;20560;-58
2023/07/20 05:33:29;;;;;;;1.42;0.80;;;21.60;64.30;;;;;;10322045;28;20453;-58
2023/07/20 05:38:30;;;;;;;5.15;0.85;;;21.60;64.40;;;;;;10321941;28;20105;-59
2023/07/20 05:43:31;;;;;;;1.30;1.00;;;21.60;64.50;;;;;;10321048;28;20084;-58
2023/07/20 05:48:31;;;;;;;1.38;0.82;;;21.60;64.60;;;;;;10321296;28;20362;-59
2023/07/20 05:53:32;;;;;;;1.70;1.23;;;21.60;64.60;;;;;;10321268;28;20113;-59
2023/07/20 05:58:33;;;;;;;1.30;1.00;;;21.60;64.60;;;;;;10321648;28;20105;-59
2023/07/20 06:03:34;;;;;;;1.10;0.90;;;21.60;64.50;;;;;;10352386;28;20473;-59
2023/07/20 06:08:34;;;;;;;1.27;0.90;;;21.60;64.50;;;;;;10348859;28;20033;-58
2023/07/20 06:13:35;;;;;;;1.23;0.75;;;21.60;64.50;;;;;;10358682;28;20034;-57
2023/07/20 06:18:36;;;;;;;1.02;0.90;;;21.60;64.50;;;;;;10320768;28;20021;-59
2023/07/20 06:23:37;;;;;;;0.77;0.77;;;21.60;64.50;;;;;;10320819;28;20018;-59
2023/07/20 06:28:37;;;;;;;1.30;0.93;;;21.60;64.50;;;;;;10326481;28;20042;-58
2023/07/20 06:33:38;;;;;;;0.85;0.70;;;21.60;64.50;;;;;;10328054;28;20053;-58
2023/07/20 06:38:39;;;;;;;1.13;0.77;;;21.60;64.40;;;;;;10327957;28;20097;-58
2023/07/20 06:43:39;;;;;;;1.77;0.70;;;21.60;64.50;;;;;;10327938;28;20121;-58
2023/07/20 06:48:40;;;;;;;0.60;0.52;;;21.60;64.40;;;;;;10338592;28;20029;-58
2023/07/20 06:53:40;;;;;;;0.90;0.70;;;21.60;64.30;;;;;;10329415;28;20104;-58
2023/07/20 06:58:41;;;;;;;1.27;0.88;;;21.60;64.30;;;;;;10327110;28;20117;-58
2023/07/20 07:03:43;;;;;;;0.93;0.80;;;21.60;64.90;;;;;;10327096;28;20478;-58
2023/07/20 07:08:44;;;;;;;0.70;0.60;;;21.60;64.50;;;;;;10342790;28;20084;-58
2023/07/20 07:13:46;;;;;;;1.05;0.73;;;21.70;64.50;;;;;;10362621;28;20149;-58
2023/07/20 07:18:49;;;;;;;1.50;0.80;;;21.70;63.90;;;;;;10326415;28;20027;-58
2023/07/20 07:23:52;;;;;;;0.90;0.70;;;21.80;63.60;;;;;;10325613;28;20417;-58
2023/07/20 07:28:53;;;;;;;1.73;0.70;;;21.80;63.70;;;;;;10325744;28;20026;-57
2023/07/20 07:33:54;;;;;;;1.23;0.60;;;21.80;63.70;;;;;;10326123;28;20514;-58
2023/07/20 07:38:54;;;;;;;0.60;0.50;;;21.70;63.70;;;;;;10324569;28;20439;-58
2023/07/20 07:43:55;;;;;;;0.82;0.60;;;21.70;63.90;;;;;;10325033;28;20034;-58
2023/07/20 07:48:56;;;;;;;1.13;0.70;;;21.80;63.80;;;;;;10325213;28;20486;-57
2023/07/20 07:53:56;;;;;;;1.25;0.80;;;21.80;63.80;;;;;;10324592;28;20022;-59
2023/07/20 07:58:57;;;;;;;1.85;0.90;;;21.80;63.60;;;;;;10324843;28;20441;-58
2023/07/20 08:03:58;;;;;;;1.13;0.85;;;21.80;63.60;;;;;;10324271;28;20061;-58
2023/07/20 08:08:58;;;;;;;1.17;0.60;;;21.80;63.70;;;;;;10341979;28;20026;-58
2023/07/20 08:14:00;;;;;;;1.55;0.77;;;21.80;63.70;;;;;;10358339;28;20049;-57
2023/07/20 08:19:02;;;;;;;0.80;0.60;;;21.80;63.80;;;;;;10323566;28;20113;-59
2023/07/20 08:24:03;;;;;;;0.68;0.50;;;21.80;63.80;;;;;;10354963;28;20045;-58
2023/07/20 08:29:04;;;;;;;0.77;0.65;;;21.80;63.70;;;;;;10323555;28;20022;-58
2023/07/20 08:34:05;;;;;;;0.88;0.68;;;21.80;63.80;;;;;;10323368;28;20065;-58
2023/07/20 08:39:06;;;;;;;0.80;0.52;;;21.80;63.80;;;;;;10323317;28;20097;-59
2023/07/20 08:44:06;;;;;;;0.85;0.70;;;21.90;63.70;;;;;;10323037;28;20473;-58
2023/07/20 08:49:07;;;;;;;1.45;0.80;;;21.90;63.60;;;;;;10350166;28;20037;-58
2023/07/20 08:54:12;;;;;;;1.15;0.70;;;22.00;63.50;;;;;;10363062;28;20421;-58
2023/07/20 08:59:17;;;;;;;1.45;0.70;;;21.90;63.40;;;;;;10363347;28;20034;-58
2023/07/20 09:04:19;;;;;;;0.98;0.80;;;22.00;63.30;;;;;;10362496;28;20045;-57
2023/07/20 09:09:19;;;;;;;1.35;0.70;;;22.00;63.10;;;;;;10362852;28;20025;-56
2023/07/20 09:14:23;;;;;;;0.77;0.77;;;22.00;63.20;;;;;;10353513;28;20106;-57
2023/07/20 09:19:24;;;;;;;1.23;0.65;;;22.00;62.70;;;;;;10321941;28;20038;-58
2023/07/20 09:24:28;;;;;;;1.60;0.98;;;22.00;62.70;;;;;;10321588;28;20438;-58
2023/07/20 09:29:30;;;;;;;1.02;0.85;;;22.00;62.90;;;;;;10352370;28;20053;-58
2023/07/20 09:34:31;;;;;;;0.98;0.75;;;22.00;63.00;;;;;;10321624;28;20037;-58
2023/07/20 09:39:32;;;;;;;1.13;0.77;;;21.90;62.70;;;;;;10321984;28;20082;-56
2023/07/20 09:44:33;;;;;;;1.25;1.15;;;22.00;63.20;;;;;;10321250;28;20458;-58
2023/07/20 09:49:40;;;;;;;2.38;1.02;;;22.00;62.90;;;;;;10321515;28;20010;-58
2023/07/20 09:54:45;;;;;;;1.83;0.85;;;22.00;62.90;;;;;;10321057;28;20183;-59
2023/07/20 09:59:46;;;;;;;0.90;0.80;;;22.00;62.80;;;;;;10336503;28;20023;-58
2023/07/20 10:04:51;;;;;;;1.10;0.70;;;22.00;62.90;;;;;;10360145;28;20084;-58
2023/07/20 10:09:53;;;;;;;0.82;0.60;;;22.00;62.90;;;;;;10354430;28;20061;-59
2023/07/20 10:15:13;;;;;;;2.53;0.60;;;22.00;62.90;;;;;;10387056;28;20700;-56
2023/07/20 10:20:15;;;;;;;0.55;0.50;;;22.00;62.80;;;;;;10328982;28;20443;-58
2023/07/20 10:25:18;;;;;;;0.77;0.60;;;22.00;62.90;;;;;;10359453;28;20591;-58
2023/07/20 10:30:20;;;;;;;0.50;0.50;;;22.00;62.80;;;;;;10359138;28;20030;-56
2023/07/20 10:35:21;;;;;;;0.77;0.60;;;22.00;62.90;;;;;;10327932;28;20560;-58
2023/07/20 10:40:33;;;;;;;1.42;0.60;;;22.00;62.80;;;;;;10327441;28;20054;-58
2023/07/20 10:45:42;;;;;;;1.08;0.85;;;22.00;63.00;;;;;;10327774;28;20037;-58
2023/07/20 10:50:44;;;;;;;0.77;0.60;;;22.00;62.90;;;;;;10355443;28;20071;-58
2023/07/20 10:55:46;;;;;;;0.60;0.60;;;22.10;62.70;;;;;;10367811;28;20068;-58
2023/07/20 11:01:01;;;;;;;0.95;0.70;;;22.00;62.70;;;;;;10363743;28;20386;-58
2023/07/20 11:06:25;;;;;;;0.60;0.60;;;22.10;62.80;;;;;;10326639;28;20034;-58
2023/07/20 11:11:47;;;;;;;1.15;0.80;;;22.10;63.00;;;;;;10364538;28;20654;-59
2023/07/20 11:16:51;;;;;;;0.50;0.50;;;22.10;62.90;;;;;;10337796;28;20030;-58
2023/07/20 11:21:54;;;;;;;1.95;0.90;;;22.10;63.00;;;;;;10357223;28;20401;-58
2023/07/20 11:26:55;;;;;;;1.25;0.85;;;22.10;63.00;;;;;;10325926;28;20540;-57
2023/07/20 11:31:58;;;;;;;0.63;0.60;;;22.10;62.90;;;;;;10326030;28;20018;-59
2023/07/20 11:36:59;;;;;;;0.80;0.60;;;22.10;62.80;;;;;;10356965;28;20121;-58
2023/07/20 11:42:00;;;;;;;0.77;0.68;;;22.10;62.80;;;;;;10325393;28;20050;-58
2023/07/20 11:47:09;;;;;;;0.73;0.73;;;22.10;62.90;;;;;;10325255;28;20034;-59
2023/07/20 11:52:19;;;;;;;0.60;0.50;;;22.10;62.80;;;;;;10324848;28;20161;-58
2023/07/20 11:57:20;;;;;;;0.60;0.50;;;22.10;62.80;;;;;;10352287;28;20049;-59
2023/07/20 12:02:21;;;;;;;0.40;0.40;;;22.10;62.70;;;;;;10364994;28;20022;-58
2023/07/20 12:07:22;;;;;;;0.90;0.70;;;22.10;62.80;;;;;;10396171;28;20087;-58
2023/07/20 12:12:25;;;;;;;0.85;0.80;;;22.20;62.70;;;;;;10364630;28;20100;-58
2023/07/20 12:17:25;;;;;;;0.70;0.50;;;22.20;62.60;;;;;;10361781;28;20021;-58
2023/07/20 12:22:26;;;;;;;0.52;0.43;;;22.20;62.40;;;;;;10324114;28;20021;-59
2023/07/20 12:27:28;;;;;;;0.68;0.55;;;22.30;62.30;;;;;;10323301;28;20030;-59
2023/07/20 12:32:28;;;;;;;1.05;0.60;;;22.30;62.30;;;;;;10323783;28;20498;-57
2023/07/20 12:37:29;;;;;;;1.10;0.77;;;22.30;62.20;;;;;;10322779;28;20026;-57
2023/07/20 12:42:30;;;;;;;0.73;0.50;;;22.30;62.10;;;;;;10322911;28;20379;-58
2023/07/20 12:47:30;;;;;;;0.55;0.50;;;22.30;62.20;;;;;;10354106;28;20039;-59
2023/07/20 12:52:32;;;;;;;0.88;0.60;;;22.30;62.00;;;;;;10322640;28;20101;-58
2023/07/20 12:57:34;;;;;;;1.15;1.05;;;22.30;61.90;;;;;;10322841;28;20046;-59
2023/07/20 13:02:36;;;;;;;0.88;0.70;;;22.30;61.80;;;;;;10354078;28;20038;-57
2023/07/20 13:07:39;;;;;;;0.35;0.35;;;22.30;61.90;;;;;;10329292;28;20579;-59
2023/07/20 13:12:40;;;;;;;0.70;0.60;;;22.30;61.90;;;;;;10362949;28;20109;-57
2023/07/20 13:17:40;;;;;;;0.50;0.50;;;22.30;62.50;;;;;;10327173;28;20381;-59
2023/07/20 13:22:41;;;;;;;0.82;0.60;;;22.30;61.90;;;;;;10321778;28;20106;-56
2023/07/20 13:27:42;;;;;;;1.00;0.80;;;22.40;61.90;;;;;;10321631;28;20188;-58
2023/07/20 13:32:44;;;;;;;0.98;0.60;;;22.30;61.80;;;;;;10321289;28;20380;-57
2023/07/20 13:37:44;;;;;;;0.93;0.68;;;22.30;62.00;;;;;;10327108;28;20027;-57
2023/07/20 13:42:45;;;;;;;0.73;0.50;;;22.30;62.10;;;;;;10361356;28;20054;-58
2023/07/20 13:47:46;;;;;;;0.80;0.50;;;22.20;62.20;;;;;;10330277;28;20473;-58
2023/07/20 13:52:47;;;;;;;0.90;0.60;;;22.30;62.20;;;;;;10330036;28;20102;-58
2023/07/20 13:57:48;;;;;;;0.50;0.40;;;22.20;62.30;;;;;;10330178;28;20065;-58
2023/07/20 14:02:48;;;;;;;2.15;0.80;;;22.20;62.30;;;;;;10329256;28;20022;-58
2023/07/20 14:07:50;;;;;;;0.80;0.60;;;22.30;62.40;;;;;;10337639;28;20129;-58
2023/07/20 14:12:50;;;;;;;0.68;0.55;;;22.30;62.30;;;;;;10384357;28;20456;-57
2023/07/20 14:17:51;;;;;;;0.80;0.80;;;22.30;62.20;;;;;;10331897;28;20026;-57
2023/07/20 14:22:52;;;;;;;0.57;0.40;;;22.20;62.00;;;;;;10328456;28;20767;-58
2023/07/20 14:27:52;;;;;;;1.40;0.80;;;22.20;62.20;;;;;;10328172;28;20104;-59
2023/07/20 14:32:53;;;;;;;0.90;0.60;;;22.20;62.20;;;;;;10328327;28;20052;-57
2023/07/20 14:37:54;;;;;;;0.50;0.40;;;22.20;62.20;;;;;;10327809;28;20383;-58
2023/07/20 14:42:56;;;;;;;0.50;0.50;;;22.20;62.30;;;;;;10359620;28;20121;-58
2023/07/20 14:47:57;;;;;;;0.68;0.50;;;22.20;62.40;;;;;;10327095;28;20026;-59
2023/07/20 14:52:57;;;;;;;0.90;0.60;;;22.30;62.20;;;;;;10327125;28;20456;-58
2023/07/20 14:57:58;;;;;;;0.98;0.60;;;22.30;62.20;;;;;;10327154;28;20054;-59
2023/07/20 15:02:59;;;;;;;0.50;0.50;;;22.30;62.00;;;;;;10326962;28;20109;-57
2023/07/20 15:07:59;;;;;;;0.82;0.73;;;22.30;61.90;;;;;;10337270;28;20124;-57
2023/07/20 15:13:00;;;;;;;0.70;0.60;;;22.30;62.00;;;;;;10367241;28;20022;-58
2023/07/20 15:18:01;;;;;;;0.57;0.45;;;22.30;61.90;;;;;;10327938;28;20076;-57
2023/07/20 15:23:01;;;;;;;0.73;0.55;;;22.20;61.90;;;;;;10326320;28;20101;-58
2023/07/20 15:28:02;;;;;;;0.95;0.60;;;22.20;61.90;;;;;;10326128;28;20156;-58
2023/07/20 15:33:03;;;;;;;1.10;0.65;;;22.20;62.10;;;;;;10326069;28;20019;-58
2023/07/20 15:38:04;;;;;;;1.00;0.60;;;22.20;62.20;;;;;;10356882;28;20023;-59
2023/07/20 15:43:04;;;;;;;0.73;0.73;;;22.20;62.20;;;;;;10356730;28;20047;-58
2023/07/20 15:48:05;;;;;;;0.55;0.50;;;22.20;62.80;;;;;;10325311;28;20033;-58
2023/07/20 15:53:06;;;;;;;0.93;0.85;;;22.20;62.00;;;;;;10325406;28;20054;-59
2023/07/20 15:58:06;;;;;;;1.55;0.82;;;22.20;62.00;;;;;;10324249;28;20113;-57
2023/07/20 16:03:11;;;;;;;0.50;0.50;;;22.20;62.00;;;;;;10324947;28;20026;-58
2023/07/20 16:08:11;;;;;;;0.90;0.50;;;22.20;62.10;;;;;;10336037;28;20044;-56
2023/07/20 16:13:12;;;;;;;1.00;0.75;;;22.20;61.90;;;;;;10363714;28;20602;-57
2023/07/20 16:18:13;;;;;;;0.88;0.57;;;22.20;62.10;;;;;;10324128;28;20030;-58
2023/07/20 16:23:13;;;;;;;0.77;0.50;;;22.20;62.70;;;;;;10323619;28;20117;-58
2023/07/20 16:28:15;;;;;;;0.88;0.70;;;22.20;62.10;;;;;;10323934;28;20089;-58
2023/07/20 16:33:16;;;;;;;1.08;0.80;;;22.20;62.10;;;;;;10323497;28;20061;-58
2023/07/20 16:38:17;;;;;;;0.85;0.70;;;22.10;62.00;;;;;;10323643;28;20022;-59
2023/07/20 16:43:17;;;;;;;0.60;0.55;;;22.20;62.10;;;;;;10322914;28;20498;-59
2023/07/20 16:48:18;;;;;;;0.68;0.65;;;22.10;62.00;;;;;;10323596;28;20077;-59
2023/07/20 16:53:20;;;;;;;0.90;0.70;;;22.10;62.10;;;;;;10323364;28;21202;-58
2023/07/20 16:58:25;;;;;;;1.00;0.80;;;22.10;62.20;;;;;;10322801;28;20098;-58
2023/07/20 17:03:25;;;;;;;0.93;0.68;;;22.10;62.20;;;;;;10353908;28;20430;-58
2023/07/20 17:08:26;;;;;;;0.90;0.60;;;22.10;62.30;;;;;;10336147;28;20033;-58
2023/07/20 17:13:27;;;;;;;0.60;0.60;;;22.10;62.30;;;;;;10360798;28;20427;-58
2023/07/20 17:18:28;;;;;;;0.55;0.52;;;22.10;62.30;;;;;;10322736;28;20022;-57
2023/07/20 17:23:30;;;;;;;1.13;0.88;;;22.10;62.30;;;;;;10322216;28;20041;-58
2023/07/20 17:28:31;;;;;;;1.38;0.95;;;22.10;62.30;;;;;;10321554;28;20085;-58
2023/07/20 17:33:32;;;;;;;0.98;0.70;;;22.10;62.30;;;;;;10322216;28;20148;-57
2023/07/20 17:38:32;;;;;;;0.85;0.70;;;22.10;62.30;;;;;;10321900;28;20101;-58
2023/07/20 17:43:33;;;;;;;0.73;0.60;;;22.10;62.30;;;;;;10321466;28;20138;-57
2023/07/20 17:48:34;;;;;;;1.00;0.70;;;22.10;62.30;;;;;;10321631;28;20121;-58
2023/07/20 17:53:34;;;;;;;0.77;0.60;;;22.00;62.30;;;;;;10321599;28;20093;-59
2023/07/20 17:58:35;;;;;;;0.63;0.63;;;22.10;62.50;;;;;;10320946;28;20027;-59
2023/07/20 18:03:37;;;;;;;1.02;0.70;;;22.00;62.40;;;;;;10321450;28;20118;-57
2023/07/20 18:08:38;;;;;;;0.68;0.52;;;22.00;62.40;;;;;;10367285;28;20080;-58
2023/07/20 18:13:39;;;;;;;0.82;0.63;;;22.00;62.40;;;;;;10358151;28;20011;-59
2023/07/20 18:18:39;;;;;;;0.80;0.70;;;22.00;62.40;;;;;;10320930;28;20095;-59
2023/07/20 18:23:40;;;;;;;1.73;0.70;;;22.00;62.30;;;;;;10326098;28;20536;-58
2023/07/20 18:28:40;;;;;;;0.70;0.50;;;22.00;62.30;;;;;;10329074;28;20358;-58
2023/07/20 18:33:42;;;;;;;0.93;0.73;;;22.00;62.30;;;;;;10327865;28;20049;-56
2023/07/20 18:38:42;;;;;;;0.88;0.70;;;22.00;62.30;;;;;;10327917;28;20442;-58
2023/07/20 18:43:43;;;;;;;0.80;0.80;;;22.00;62.50;;;;;;10327414;28;20077;-58
2023/07/20 18:48:47;;;;;;;0.55;0.55;;;22.00;62.50;;;;;;10327117;28;20038;-57
2023/07/20 18:53:47;;;;;;;1.00;0.80;;;22.00;62.60;;;;;;10327555;28;20038;-59
2023/07/20 18:58:49;;;;;;;0.80;0.52;;;22.00;62.60;;;;;;10325992;28;20394;-59
2023/07/20 19:03:49;;;;;;;1.25;0.80;;;22.00;62.50;;;;;;10358157;28;20679;-59
2023/07/20 19:08:50;;;;;;;1.08;0.65;;;22.00;62.50;;;;;;10343772;28;20032;-59
2023/07/20 19:13:50;;;;;;;0.60;0.60;;;22.00;62.40;;;;;;10362210;28;20463;-57
2023/07/20 19:18:51;;;;;;;0.80;0.60;;;21.90;62.30;;;;;;10357936;28;20583;-57
2023/07/20 19:23:52;;;;;;;0.95;0.68;;;21.90;62.30;;;;;;10326214;28;20102;-59
2023/07/20 19:28:53;;;;;;;1.10;0.90;;;21.90;63.00;;;;;;10325625;28;20089;-58
2023/07/20 19:33:54;;;;;;;0.70;0.50;;;22.00;62.60;;;;;;10324639;28;20049;-58
2023/07/20 19:38:55;;;;;;;0.98;0.80;;;21.90;62.60;;;;;;10325750;28;20110;-58
2023/07/20 19:43:56;;;;;;;1.13;0.90;;;21.90;62.60;;;;;;10325195;28;20046;-58
2023/07/20 19:48:57;;;;;;;1.13;0.63;;;21.90;62.60;;;;;;10325658;28;20122;-59
2023/07/20 19:53:57;;;;;;;0.93;0.68;;;21.90;62.60;;;;;;10323857;28;20505;-58
2023/07/20 19:58:58;;;;;;;1.45;0.90;;;21.90;62.60;;;;;;10325370;28;20036;-58
2023/07/20 20:03:59;;;;;;;1.58;1.08;;;21.90;62.60;;;;;;10324491;28;20665;-58
2023/07/20 20:08:59;;;;;;;1.42;1.10;;;21.90;62.60;;;;;;10342269;28;20537;-58
2023/07/20 20:14:00;;;;;;;1.33;0.90;;;21.90;62.60;;;;;;10358704;28;20026;-58
2023/07/20 20:19:01;;;;;;;0.75;0.73;;;21.90;62.70;;;;;;10355428;28;20062;-59
2023/07/20 20:24:02;;;;;;;1.25;1.13;;;21.90;62.70;;;;;;10321833;28;20133;-58
2023/07/20 20:29:03;;;;;;;1.27;1.02;;;21.90;62.70;;;;;;10322332;28;20493;-59
2023/07/20 20:34:04;;;;;;;1.35;1.00;;;21.90;62.80;;;;;;10353842;28;20189;-59
2023/07/20 20:39:04;;;;;;;1.05;0.90;;;21.90;62.80;;;;;;10321408;28;20029;-59
2023/07/20 20:44:05;;;;;;;0.95;0.75;;;21.90;62.80;;;;;;10321772;28;20046;-57
2023/07/20 20:49:06;;;;;;;1.05;0.77;;;21.90;62.80;;;;;;10321396;28;20038;-56
2023/07/20 20:54:10;;;;;;;1.30;0.90;;;21.90;63.50;;;;;;10321640;28;20033;-59
2023/07/20 20:59:10;;;;;;;0.88;0.70;;;21.90;62.90;;;;;;10320999;28;20072;-58
2023/07/20 21:04:11;;;;;;;1.55;0.95;;;21.80;63.00;;;;;;10321059;28;20046;-58
2023/07/20 21:09:12;;;;;;;0.82;0.77;;;21.80;63.00;;;;;;10340480;28;20413;-58
2023/07/20 21:14:12;;;;;;;1.42;0.80;;;21.80;63.00;;;;;;10353718;28;20022;-58
2023/07/20 21:19:13;;;;;;;2.15;1.05;;;21.80;63.00;;;;;;10320733;28;20078;-58
2023/07/20 21:24:13;;;;;;;1.30;1.05;;;21.80;63.00;;;;;;10320687;28;20416;-58
2023/07/20 21:29:14;;;;;;;1.70;1.20;;;21.80;63.10;;;;;;10320502;28;20197;-58
2023/07/20 21:34:15;;;;;;;1.45;1.20;;;21.80;63.10;;;;;;10320624;28;20585;-58
2023/07/20 21:39:16;;;;;;;2.47;0.82;;;21.80;63.10;;;;;;10335383;28;20042;-58
2023/07/20 21:44:16;;;;;;;1.13;1.02;;;21.80;63.20;;;;;;10351291;28;20027;-58
2023/07/20 21:49:17;;;;;;;1.20;0.90;;;21.80;63.40;;;;;;10319948;28;20110;-58
2023/07/20 21:54:18;;;;;;;1.33;1.00;;;21.80;63.20;;;;;;10320102;28;20478;-58
2023/07/20 21:59:18;;;;;;;1.60;0.98;;;21.80;63.20;;;;;;10326283;28;20041;-58
2023/07/20 22:04:19;;;;;;;1.05;0.90;;;21.80;63.30;;;;;;10328137;28;20072;-58
2023/07/20 22:09:20;;;;;;;1.63;1.10;;;21.80;63.30;;;;;;10348966;28;20022;-59
2023/07/20 22:14:21;;;;;;;14.93;1.27;;;21.80;63.30;;;;;;10368362;28;20025;-59
2023/07/20 22:19:22;;;;;;;1.20;0.93;;;21.80;63.30;;;;;;10368644;28;20102;-58
2023/07/20 22:24:22;;;;;;;1.85;1.27;;;21.70;63.30;;;;;;10367554;28;20069;-59
2023/07/20 22:29:25;;;;;;;1.55;1.23;;;21.70;63.30;;;;;;10357390;28;20102;-57
2023/07/20 22:34:30;;;;;;;2.08;1.33;;;21.70;63.30;;;;;;10326621;28;20026;-58
2023/07/20 22:39:32;;;;;;;2.55;1.20;;;21.70;63.20;;;;;;10326613;28;20034;-59
2023/07/20 22:44:33;;;;;;;1.27;1.17;;;21.70;63.30;;;;;;10326085;28;20633;-57
2023/07/20 22:49:35;;;;;;;2.30;1.27;;;21.70;63.30;;;;;;10326351;28;20102;-56
2023/07/20 22:54:36;;;;;;;1.52;1.25;;;21.70;63.30;;;;;;10325987;28;20018;-57
2023/07/20 22:59:36;;;;;;;1.48;1.38;;;21.70;63.30;;;;;;10325065;28;20054;-57
2023/07/20 23:04:37;;;;;;;1.30;1.13;;;21.70;63.30;;;;;;10325645;28;20018;-58
2023/07/20 23:09:43;;;;;;;1.83;1.27;;;21.70;63.40;;;;;;10348419;28;20049;-58
2023/07/20 23:14:44;;;;;;;1.98;1.38;;;21.70;63.30;;;;;;10353804;28;20496;-56
2023/07/20 23:19:44;;;;;;;1.50;0.77;;;21.70;63.30;;;;;;10324960;28;20029;-58
2023/07/20 23:24:45;;;;;;;2.35;1.23;;;21.70;63.30;;;;;;10324851;28;20118;-58
2023/07/20 23:29:46;;;;;;;1.38;1.20;;;21.70;63.30;;;;;;10324593;28;20315;-57
2023/07/20 23:34:47;;;;;;;1.40;1.10;;;21.70;63.20;;;;;;10356270;28;20054;-57
2023/07/20 23:39:49;;;;;;;1.70;1.05;;;21.70;63.30;;;;;;10322763;28;20111;-57
2023/07/20 23:44:49;;;;;;;1.60;1.13;;;21.70;63.20;;;;;;10324339;28;20030;-58
2023/07/20 23:49:50;;;;;;;1.30;1.20;;;21.70;63.20;;;;;;10324019;28;20168;-59
2023/07/20 23:54:51;;;;;;;2.75;1.42;;;21.70;63.30;;;;;;10324173;28;20137;-58
2023/07/20 23:59:51;;;;;;;2.17;1.48;;;21.70;63.20;;;;;;10323749;28;20033;-59
